Van Lear, Kentucky
Current Conditions -  °F | °C
As of 8:35 PM on Wednesday 26 Nov 2014 (Local Time) from KSJS Reporting Station
Scattered Clouds Scattered Clouds  
Wind Chill: 40°   Ceiling: Unl
Heat Index: 40°   Visibility: 10mi
Dew Point: 29°   Wind: 3mph
Humidity: 66%   Direction: 340°NNW
Pressure: 30"   Gusts: NA
Location:  37.77°N, 82.76°W
Report Text: KSJS 270135Z AUTO 34003KT 10SM SCT120 04/M01 A3000 RMK AO2 T00431015
Loading
Personal Weather Stations






























Interactive Weather Map New forecast layout! Learn more

10-Day Weather Forecast

Advertisements
Track Severe Weather on mobile